sensor_id;sensor_type;location;lat;lon;timestamp;P1;durP1;ratioP1;P2;durP2;ratioP2
18596;SDS011;9428;50.950;6.912;2023-08-07T00:02:28;11.10;;;2.75;;
18596;SDS011;9428;50.950;6.912;2023-08-07T00:05:15;11.40;;;2.75;;
18596;SDS011;9428;50.950;6.912;2023-08-07T00:08:03;10.63;;;3.25;;
18596;SDS011;9428;50.950;6.912;2023-08-07T00:10:50;9.35;;;3.08;;
18596;SDS011;9428;50.950;6.912;2023-08-07T00:13:37;7.70;;;2.50;;
18596;SDS011;9428;50.950;6.912;2023-08-07T00:16:25;12.00;;;2.63;;
18596;SDS011;9428;50.950;6.912;2023-08-07T00:19:13;13.02;;;3.13;;
18596;SDS011;9428;50.950;6.912;2023-08-07T00:22:00;12.60;;;2.95;;
18596;SDS011;9428;50.950;6.912;2023-08-07T00:24:48;7.63;;;2.75;;
18596;SDS011;9428;50.950;6.912;2023-08-07T00:27:35;9.55;;;3.40;;
18596;SDS011;9428;50.950;6.912;2023-08-07T00:30:22;14.93;;;3.08;;
18596;SDS011;9428;50.950;6.912;2023-08-07T00:33:10;8.68;;;2.65;;
18596;SDS011;9428;50.950;6.912;2023-08-07T00:36:07;8.48;;;2.80;;
18596;SDS011;9428;50.950;6.912;2023-08-07T00:38:54;8.68;;;2.53;;
18596;SDS011;9428;50.950;6.912;2023-08-07T00:41:42;12.00;;;2.60;;
18596;SDS011;9428;50.950;6.912;2023-08-07T00:44:29;8.13;;;2.75;;
18596;SDS011;9428;50.950;6.912;2023-08-07T00:47:17;14.50;;;2.28;;
18596;SDS011;9428;50.950;6.912;2023-08-07T00:50:11;13.75;;;3.05;;
18596;SDS011;9428;50.950;6.912;2023-08-07T00:53:00;9.30;;;2.80;;
18596;SDS011;9428;50.950;6.912;2023-08-07T00:55:50;9.93;;;2.47;;
18596;SDS011;9428;50.950;6.912;2023-08-07T00:58:43;10.27;;;2.80;;
18596;SDS011;9428;50.950;6.912;2023-08-07T01:01:31;7.53;;;2.65;;
18596;SDS011;9428;50.950;6.912;2023-08-07T01:04:19;7.43;;;2.55;;
18596;SDS011;9428;50.950;6.912;2023-08-07T01:07:06;8.57;;;2.72;;
18596;SDS011;9428;50.950;6.912;2023-08-07T01:09:58;11.65;;;3.05;;
18596;SDS011;9428;50.950;6.912;2023-08-07T01:12:52;7.22;;;2.72;;
18596;SDS011;9428;50.950;6.912;2023-08-07T01:15:49;6.40;;;2.38;;
18596;SDS011;9428;50.950;6.912;2023-08-07T01:18:41;8.85;;;2.83;;
18596;SDS011;9428;50.950;6.912;2023-08-07T01:21:29;8.95;;;2.58;;
18596;SDS011;9428;50.950;6.912;2023-08-07T01:24:20;9.75;;;3.08;;
18596;SDS011;9428;50.950;6.912;2023-08-07T01:27:10;11.45;;;2.97;;
18596;SDS011;9428;50.950;6.912;2023-08-07T01:30:09;10.60;;;3.42;;
18596;SDS011;9428;50.950;6.912;2023-08-07T01:33:04;11.18;;;2.78;;
18596;SDS011;9428;50.950;6.912;2023-08-07T01:35:55;12.68;;;2.97;;
18596;SDS011;9428;50.950;6.912;2023-08-07T01:38:44;8.55;;;2.72;;
18596;SDS011;9428;50.950;6.912;2023-08-07T01:41:36;10.40;;;3.00;;
18596;SDS011;9428;50.950;6.912;2023-08-07T01:44:24;8.07;;;3.03;;
18596;SDS011;9428;50.950;6.912;2023-08-07T01:47:11;13.27;;;2.75;;
18596;SDS011;9428;50.950;6.912;2023-08-07T01:49:58;13.00;;;2.83;;
18596;SDS011;9428;50.950;6.912;2023-08-07T01:52:45;9.90;;;3.22;;
18596;SDS011;9428;50.950;6.912;2023-08-07T01:55:33;14.73;;;4.22;;
18596;SDS011;9428;50.950;6.912;2023-08-07T01:58:21;11.48;;;2.88;;
18596;SDS011;9428;50.950;6.912;2023-08-07T02:01:08;10.70;;;2.60;;
18596;SDS011;9428;50.950;6.912;2023-08-07T02:03:56;8.70;;;2.80;;
18596;SDS011;9428;50.950;6.912;2023-08-07T02:06:43;6.72;;;2.85;;
18596;SDS011;9428;50.950;6.912;2023-08-07T02:09:30;12.32;;;3.70;;
18596;SDS011;9428;50.950;6.912;2023-08-07T02:12:17;10.20;;;2.97;;
18596;SDS011;9428;50.950;6.912;2023-08-07T02:15:06;7.35;;;2.67;;
18596;SDS011;9428;50.950;6.912;2023-08-07T02:17:54;8.27;;;2.40;;
18596;SDS011;9428;50.950;6.912;2023-08-07T02:20:41;13.40;;;3.80;;
18596;SDS011;9428;50.950;6.912;2023-08-07T02:23:28;7.47;;;2.88;;
18596;SDS011;9428;50.950;6.912;2023-08-07T02:26:16;13.00;;;3.28;;
18596;SDS011;9428;50.950;6.912;2023-08-07T02:29:03;11.45;;;3.03;;
18596;SDS011;9428;50.950;6.912;2023-08-07T02:31:54;11.70;;;2.60;;
18596;SDS011;9428;50.950;6.912;2023-08-07T02:34:41;9.48;;;2.38;;
18596;SDS011;9428;50.950;6.912;2023-08-07T02:37:28;9.07;;;2.60;;
18596;SDS011;9428;50.950;6.912;2023-08-07T02:40:15;6.43;;;2.50;;
18596;SDS011;9428;50.950;6.912;2023-08-07T02:43:04;7.40;;;2.65;;
18596;SDS011;9428;50.950;6.912;2023-08-07T02:45:51;10.70;;;2.92;;
18596;SDS011;9428;50.950;6.912;2023-08-07T02:48:40;16.65;;;4.35;;
18596;SDS011;9428;50.950;6.912;2023-08-07T02:51:27;12.50;;;3.65;;
18596;SDS011;9428;50.950;6.912;2023-08-07T02:54:14;10.48;;;3.13;;
18596;SDS011;9428;50.950;6.912;2023-08-07T02:57:01;8.77;;;2.75;;
18596;SDS011;9428;50.950;6.912;2023-08-07T02:59:49;19.55;;;3.97;;
18596;SDS011;9428;50.950;6.912;2023-08-07T03:02:36;10.55;;;2.85;;
18596;SDS011;9428;50.950;6.912;2023-08-07T03:05:25;9.90;;;3.20;;
18596;SDS011;9428;50.950;6.912;2023-08-07T03:08:12;9.75;;;3.83;;
18596;SDS011;9428;50.950;6.912;2023-08-07T03:10:59;10.98;;;2.92;;
18596;SDS011;9428;50.950;6.912;2023-08-07T03:13:46;11.38;;;3.38;;
18596;SDS011;9428;50.950;6.912;2023-08-07T03:16:34;18.85;;;3.83;;
18596;SDS011;9428;50.950;6.912;2023-08-07T03:19:21;10.43;;;3.08;;
18596;SDS011;9428;50.950;6.912;2023-08-07T03:22:10;14.77;;;3.78;;
18596;SDS011;9428;50.950;6.912;2023-08-07T03:24:57;11.68;;;2.85;;
18596;SDS011;9428;50.950;6.912;2023-08-07T03:27:44;11.02;;;3.10;;
18596;SDS011;9428;50.950;6.912;2023-08-07T03:30:31;10.23;;;2.85;;
18596;SDS011;9428;50.950;6.912;2023-08-07T03:33:19;11.30;;;3.70;;
18596;SDS011;9428;50.950;6.912;2023-08-07T03:36:06;8.05;;;3.10;;
18596;SDS011;9428;50.950;6.912;2023-08-07T03:38:54;13.23;;;3.15;;
18596;SDS011;9428;50.950;6.912;2023-08-07T03:41:42;11.60;;;3.80;;
18596;SDS011;9428;50.950;6.912;2023-08-07T03:44:29;5.35;;;2.65;;
18596;SDS011;9428;50.950;6.912;2023-08-07T03:47:17;11.57;;;2.83;;
18596;SDS011;9428;50.950;6.912;2023-08-07T03:50:05;8.15;;;3.05;;
18596;SDS011;9428;50.950;6.912;2023-08-07T03:52:52;10.60;;;2.53;;
18596;SDS011;9428;50.950;6.912;2023-08-07T03:55:41;9.15;;;2.60;;
18596;SDS011;9428;50.950;6.912;2023-08-07T03:58:30;11.63;;;3.38;;
18596;SDS011;9428;50.950;6.912;2023-08-07T04:01:17;7.40;;;3.38;;
18596;SDS011;9428;50.950;6.912;2023-08-07T04:04:04;9.32;;;2.83;;
18596;SDS011;9428;50.950;6.912;2023-08-07T04:06:51;6.72;;;2.88;;
18596;SDS011;9428;50.950;6.912;2023-08-07T04:09:39;7.32;;;2.92;;
18596;SDS011;9428;50.950;6.912;2023-08-07T04:12:27;7.20;;;3.20;;
18596;SDS011;9428;50.950;6.912;2023-08-07T04:15:14;11.70;;;3.50;;
18596;SDS011;9428;50.950;6.912;2023-08-07T04:18:02;12.85;;;3.42;;
18596;SDS011;9428;50.950;6.912;2023-08-07T04:20:49;9.85;;;3.08;;
18596;SDS011;9428;50.950;6.912;2023-08-07T04:23:37;7.95;;;3.28;;
18596;SDS011;9428;50.950;6.912;2023-08-07T04:26:24;8.45;;;2.75;;
18596;SDS011;9428;50.950;6.912;2023-08-07T04:29:13;7.18;;;3.10;;
18596;SDS011;9428;50.950;6.912;2023-08-07T04:32:00;9.23;;;3.10;;
18596;SDS011;9428;50.950;6.912;2023-08-07T04:34:48;14.57;;;3.50;;
18596;SDS011;9428;50.950;6.912;2023-08-07T04:37:35;11.70;;;3.28;;
18596;SDS011;9428;50.950;6.912;2023-08-07T04:40:22;7.07;;;2.67;;
18596;SDS011;9428;50.950;6.912;2023-08-07T04:43:09;8.20;;;2.88;;
18596;SDS011;9428;50.950;6.912;2023-08-07T04:45:58;8.38;;;2.88;;
18596;SDS011;9428;50.950;6.912;2023-08-07T04:48:46;6.75;;;3.08;;
18596;SDS011;9428;50.950;6.912;2023-08-07T04:51:33;8.02;;;2.78;;
18596;SDS011;9428;50.950;6.912;2023-08-07T04:54:21;11.50;;;3.55;;
18596;SDS011;9428;50.950;6.912;2023-08-07T04:57:08;11.60;;;3.47;;
18596;SDS011;9428;50.950;6.912;2023-08-07T04:59:55;15.73;;;3.72;;
18596;SDS011;9428;50.950;6.912;2023-08-07T05:02:44;12.90;;;3.40;;
18596;SDS011;9428;50.950;6.912;2023-08-07T05:05:31;11.77;;;3.60;;
18596;SDS011;9428;50.950;6.912;2023-08-07T05:08:18;6.60;;;2.60;;
18596;SDS011;9428;50.950;6.912;2023-08-07T05:11:05;14.45;;;2.95;;
18596;SDS011;9428;50.950;6.912;2023-08-07T05:13:55;9.68;;;3.55;;
18596;SDS011;9428;50.950;6.912;2023-08-07T05:16:43;8.55;;;2.97;;
18596;SDS011;9428;50.950;6.912;2023-08-07T05:19:31;9.95;;;3.58;;
18596;SDS011;9428;50.950;6.912;2023-08-07T05:22:19;13.68;;;3.50;;
18596;SDS011;9428;50.950;6.912;2023-08-07T05:25:06;10.50;;;3.10;;
18596;SDS011;9428;50.950;6.912;2023-08-07T05:28:01;9.93;;;2.83;;
18596;SDS011;9428;50.950;6.912;2023-08-07T05:30:49;7.03;;;2.60;;
18596;SDS011;9428;50.950;6.912;2023-08-07T05:33:36;7.55;;;3.15;;
18596;SDS011;9428;50.950;6.912;2023-08-07T05:36:30;12.35;;;3.20;;
18596;SDS011;9428;50.950;6.912;2023-08-07T05:39:18;11.63;;;3.08;;
18596;SDS011;9428;50.950;6.912;2023-08-07T05:42:05;11.70;;;3.58;;
18596;SDS011;9428;50.950;6.912;2023-08-07T05:44:54;9.43;;;3.47;;
18596;SDS011;9428;50.950;6.912;2023-08-07T05:47:42;11.35;;;3.58;;
18596;SDS011;9428;50.950;6.912;2023-08-07T05:50:29;11.40;;;3.55;;
18596;SDS011;9428;50.950;6.912;2023-08-07T05:53:19;7.55;;;2.70;;
18596;SDS011;9428;50.950;6.912;2023-08-07T05:56:06;6.97;;;2.60;;
18596;SDS011;9428;50.950;6.912;2023-08-07T05:58:54;7.85;;;2.45;;
18596;SDS011;9428;50.950;6.912;2023-08-07T06:01:41;9.10;;;3.17;;
18596;SDS011;9428;50.950;6.912;2023-08-07T06:04:28;10.80;;;2.78;;
18596;SDS011;9428;50.950;6.912;2023-08-07T06:07:15;9.48;;;2.70;;
18596;SDS011;9428;50.950;6.912;2023-08-07T06:10:04;14.52;;;3.13;;
18596;SDS011;9428;50.950;6.912;2023-08-07T06:12:52;10.48;;;3.53;;
18596;SDS011;9428;50.950;6.912;2023-08-07T06:15:40;12.00;;;3.17;;
18596;SDS011;9428;50.950;6.912;2023-08-07T06:18:27;6.82;;;2.70;;
18596;SDS011;9428;50.950;6.912;2023-08-07T06:21:24;6.38;;;2.72;;
18596;SDS011;9428;50.950;6.912;2023-08-07T06:24:13;7.70;;;2.70;;
18596;SDS011;9428;50.950;6.912;2023-08-07T06:27:03;14.45;;;3.10;;
18596;SDS011;9428;50.950;6.912;2023-08-07T06:29:51;11.05;;;3.05;;
18596;SDS011;9428;50.950;6.912;2023-08-07T06:32:38;5.57;;;2.85;;
18596;SDS011;9428;50.950;6.912;2023-08-07T06:35:25;7.95;;;2.88;;
18596;SDS011;9428;50.950;6.912;2023-08-07T06:38:16;7.28;;;3.30;;
18596;SDS011;9428;50.950;6.912;2023-08-07T06:41:03;10.70;;;3.40;;
18596;SDS011;9428;50.950;6.912;2023-08-07T06:43:55;12.45;;;3.67;;
18596;SDS011;9428;50.950;6.912;2023-08-07T06:46:42;17.17;;;3.78;;
18596;SDS011;9428;50.950;6.912;2023-08-07T06:49:31;6.28;;;3.20;;
18596;SDS011;9428;50.950;6.912;2023-08-07T06:52:18;7.18;;;3.05;;
18596;SDS011;9428;50.950;6.912;2023-08-07T06:55:06;8.88;;;2.97;;
18596;SDS011;9428;50.950;6.912;2023-08-07T06:57:54;9.63;;;3.25;;
18596;SDS011;9428;50.950;6.912;2023-08-07T07:00:45;11.93;;;3.15;;
18596;SDS011;9428;50.950;6.912;2023-08-07T07:03:32;9.63;;;3.05;;
18596;SDS011;9428;50.950;6.912;2023-08-07T07:06:20;9.25;;;3.15;;
18596;SDS011;9428;50.950;6.912;2023-08-07T07:09:11;9.50;;;3.40;;
18596;SDS011;9428;50.950;6.912;2023-08-07T07:12:01;10.18;;;3.45;;
18596;SDS011;9428;50.950;6.912;2023-08-07T07:14:49;12.52;;;3.53;;
18596;SDS011;9428;50.950;6.912;2023-08-07T07:17:37;12.55;;;3.65;;
18596;SDS011;9428;50.950;6.912;2023-08-07T07:20:25;13.38;;;3.70;;
18596;SDS011;9428;50.950;6.912;2023-08-07T07:23:12;15.50;;;3.15;;
18596;SDS011;9428;50.950;6.912;2023-08-07T07:26:01;9.35;;;3.20;;
18596;SDS011;9428;50.950;6.912;2023-08-07T07:28:48;12.50;;;3.60;;
18596;SDS011;9428;50.950;6.912;2023-08-07T07:31:36;12.73;;;3.42;;
18596;SDS011;9428;50.950;6.912;2023-08-07T07:34:25;12.18;;;3.63;;
18596;SDS011;9428;50.950;6.912;2023-08-07T07:37:12;10.57;;;3.28;;
18596;SDS011;9428;50.950;6.912;2023-08-07T07:40:02;12.55;;;3.42;;
18596;SDS011;9428;50.950;6.912;2023-08-07T07:42:50;10.43;;;3.22;;
18596;SDS011;9428;50.950;6.912;2023-08-07T07:45:37;16.13;;;3.58;;
18596;SDS011;9428;50.950;6.912;2023-08-07T07:48:24;8.43;;;2.78;;
18596;SDS011;9428;50.950;6.912;2023-08-07T07:51:12;15.57;;;3.83;;
18596;SDS011;9428;50.950;6.912;2023-08-07T07:54:00;10.38;;;3.08;;
18596;SDS011;9428;50.950;6.912;2023-08-07T07:56:47;9.52;;;3.15;;
18596;SDS011;9428;50.950;6.912;2023-08-07T07:59:34;7.22;;;2.97;;
18596;SDS011;9428;50.950;6.912;2023-08-07T08:02:24;8.00;;;3.28;;
18596;SDS011;9428;50.950;6.912;2023-08-07T08:05:12;13.13;;;2.83;;
18596;SDS011;9428;50.950;6.912;2023-08-07T08:08:02;9.00;;;2.72;;
18596;SDS011;9428;50.950;6.912;2023-08-07T08:10:50;10.73;;;3.20;;
18596;SDS011;9428;50.950;6.912;2023-08-07T08:13:37;10.50;;;3.50;;
18596;SDS011;9428;50.950;6.912;2023-08-07T08:16:26;7.95;;;2.80;;
18596;SDS011;9428;50.950;6.912;2023-08-07T08:19:14;7.82;;;2.67;;
18596;SDS011;9428;50.950;6.912;2023-08-07T08:22:01;12.68;;;3.53;;
18596;SDS011;9428;50.950;6.912;2023-08-07T08:24:52;9.57;;;2.78;;
18596;SDS011;9428;50.950;6.912;2023-08-07T08:27:40;7.93;;;2.97;;
18596;SDS011;9428;50.950;6.912;2023-08-07T08:30:27;11.65;;;3.00;;
18596;SDS011;9428;50.950;6.912;2023-08-07T08:33:15;10.20;;;3.58;;
18596;SDS011;9428;50.950;6.912;2023-08-07T08:36:03;6.32;;;2.47;;
18596;SDS011;9428;50.950;6.912;2023-08-07T08:38:51;8.35;;;2.63;;
18596;SDS011;9428;50.950;6.912;2023-08-07T08:41:40;11.77;;;3.38;;
18596;SDS011;9428;50.950;6.912;2023-08-07T08:44:32;15.63;;;2.88;;
18596;SDS011;9428;50.950;6.912;2023-08-07T08:47:26;9.70;;;3.17;;
18596;SDS011;9428;50.950;6.912;2023-08-07T08:50:14;12.07;;;3.10;;
18596;SDS011;9428;50.950;6.912;2023-08-07T08:53:01;18.58;;;3.38;;
18596;SDS011;9428;50.950;6.912;2023-08-07T08:55:50;10.90;;;3.20;;
18596;SDS011;9428;50.950;6.912;2023-08-07T08:58:39;8.02;;;3.05;;
18596;SDS011;9428;50.950;6.912;2023-08-07T09:01:27;14.27;;;3.42;;
18596;SDS011;9428;50.950;6.912;2023-08-07T09:04:15;10.27;;;2.72;;
18596;SDS011;9428;50.950;6.912;2023-08-07T09:07:04;10.05;;;3.20;;
18596;SDS011;9428;50.950;6.912;2023-08-07T09:09:52;9.82;;;3.28;;
18596;SDS011;9428;50.950;6.912;2023-08-07T09:12:40;8.68;;;2.85;;
18596;SDS011;9428;50.950;6.912;2023-08-07T09:15:40;6.10;;;2.90;;
18596;SDS011;9428;50.950;6.912;2023-08-07T09:18:33;7.18;;;2.72;;
18596;SDS011;9428;50.950;6.912;2023-08-07T09:21:20;12.88;;;3.05;;
18596;SDS011;9428;50.950;6.912;2023-08-07T09:24:08;11.35;;;4.30;;
18596;SDS011;9428;50.950;6.912;2023-08-07T09:26:56;6.53;;;2.75;;
18596;SDS011;9428;50.950;6.912;2023-08-07T09:29:45;7.65;;;3.13;;
18596;SDS011;9428;50.950;6.912;2023-08-07T09:32:35;12.25;;;2.47;;
18596;SDS011;9428;50.950;6.912;2023-08-07T09:35:23;11.25;;;2.45;;
18596;SDS011;9428;50.950;6.912;2023-08-07T09:38:11;6.85;;;2.72;;
18596;SDS011;9428;50.950;6.912;2023-08-07T09:40:58;7.75;;;2.15;;
18596;SDS011;9428;50.950;6.912;2023-08-07T09:43:45;5.05;;;2.42;;
18596;SDS011;9428;50.950;6.912;2023-08-07T09:46:33;7.20;;;2.10;;
18596;SDS011;9428;50.950;6.912;2023-08-07T09:49:32;10.43;;;2.47;;
18596;SDS011;9428;50.950;6.912;2023-08-07T09:52:20;7.57;;;2.40;;
18596;SDS011;9428;50.950;6.912;2023-08-07T09:55:11;5.35;;;2.20;;
18596;SDS011;9428;50.950;6.912;2023-08-07T09:57:59;8.48;;;2.22;;
18596;SDS011;9428;50.950;6.912;2023-08-07T10:00:47;7.25;;;1.70;;
18596;SDS011;9428;50.950;6.912;2023-08-07T10:03:34;6.60;;;1.95;;
18596;SDS011;9428;50.950;6.912;2023-08-07T10:06:23;4.47;;;2.00;;
18596;SDS011;9428;50.950;6.912;2023-08-07T10:09:11;3.90;;;1.63;;
18596;SDS011;9428;50.950;6.912;2023-08-07T10:11:58;6.32;;;1.83;;
18596;SDS011;9428;50.950;6.912;2023-08-07T10:14:46;6.70;;;1.80;;
18596;SDS011;9428;50.950;6.912;2023-08-07T10:17:34;7.30;;;1.77;;
18596;SDS011;9428;50.950;6.912;2023-08-07T10:20:22;10.65;;;1.65;;
18596;SDS011;9428;50.950;6.912;2023-08-07T10:23:12;7.30;;;1.73;;
18596;SDS011;9428;50.950;6.912;2023-08-07T10:26:02;9.73;;;2.05;;
18596;SDS011;9428;50.950;6.912;2023-08-07T10:28:52;6.40;;;2.03;;
18596;SDS011;9428;50.950;6.912;2023-08-07T10:31:40;4.05;;;2.17;;
18596;SDS011;9428;50.950;6.912;2023-08-07T10:34:29;5.32;;;2.28;;
18596;SDS011;9428;50.950;6.912;2023-08-07T10:37:31;7.45;;;2.00;;
18596;SDS011;9428;50.950;6.912;2023-08-07T10:40:25;7.85;;;1.80;;
18596;SDS011;9428;50.950;6.912;2023-08-07T10:43:15;4.95;;;1.88;;
18596;SDS011;9428;50.950;6.912;2023-08-07T10:46:04;10.65;;;2.10;;
18596;SDS011;9428;50.950;6.912;2023-08-07T10:48:53;5.60;;;2.13;;
18596;SDS011;9428;50.950;6.912;2023-08-07T10:51:42;8.18;;;1.98;;
18596;SDS011;9428;50.950;6.912;2023-08-07T10:54:36;10.27;;;2.42;;
18596;SDS011;9428;50.950;6.912;2023-08-07T10:57:31;5.45;;;1.80;;
18596;SDS011;9428;50.950;6.912;2023-08-07T11:00:21;6.25;;;1.88;;
18596;SDS011;9428;50.950;6.912;2023-08-07T11:03:12;11.95;;;2.20;;
18596;SDS011;9428;50.950;6.912;2023-08-07T11:06:08;5.20;;;1.70;;
18596;SDS011;9428;50.950;6.912;2023-08-07T11:08:56;5.00;;;2.08;;
18596;SDS011;9428;50.950;6.912;2023-08-07T11:11:44;5.55;;;1.40;;
18596;SDS011;9428;50.950;6.912;2023-08-07T11:14:33;6.18;;;2.13;;
18596;SDS011;9428;50.950;6.912;2023-08-07T11:17:20;8.77;;;1.73;;
18596;SDS011;9428;50.950;6.912;2023-08-07T11:20:10;7.70;;;1.55;;
18596;SDS011;9428;50.950;6.912;2023-08-07T11:22:58;5.55;;;1.70;;
18596;SDS011;9428;50.950;6.912;2023-08-07T11:25:46;3.15;;;1.67;;
18596;SDS011;9428;50.950;6.912;2023-08-07T11:28:33;3.28;;;1.95;;
18596;SDS011;9428;50.950;6.912;2023-08-07T11:31:22;3.80;;;1.55;;
18596;SDS011;9428;50.950;6.912;2023-08-07T11:34:10;5.70;;;2.35;;
18596;SDS011;9428;50.950;6.912;2023-08-07T11:36:57;4.63;;;1.67;;
18596;SDS011;9428;50.950;6.912;2023-08-07T11:39:46;6.55;;;1.67;;
18596;SDS011;9428;50.950;6.912;2023-08-07T11:42:33;7.47;;;2.15;;
18596;SDS011;9428;50.950;6.912;2023-08-07T11:45:20;8.30;;;2.20;;
18596;SDS011;9428;50.950;6.912;2023-08-07T11:48:09;4.50;;;2.22;;
18596;SDS011;9428;50.950;6.912;2023-08-07T11:50:57;8.32;;;1.90;;
18596;SDS011;9428;50.950;6.912;2023-08-07T11:53:45;7.32;;;2.33;;
18596;SDS011;9428;50.950;6.912;2023-08-07T11:56:32;6.50;;;2.97;;
18596;SDS011;9428;50.950;6.912;2023-08-07T11:59:20;9.43;;;2.17;;
18596;SDS011;9428;50.950;6.912;2023-08-07T12:02:08;6.65;;;2.00;;
18596;SDS011;9428;50.950;6.912;2023-08-07T12:04:58;5.78;;;2.03;;
18596;SDS011;9428;50.950;6.912;2023-08-07T12:07:46;8.98;;;2.20;;
18596;SDS011;9428;50.950;6.912;2023-08-07T12:10:34;4.53;;;1.95;;
18596;SDS011;9428;50.950;6.912;2023-08-07T12:13:23;4.97;;;1.90;;
18596;SDS011;9428;50.950;6.912;2023-08-07T12:16:13;4.88;;;1.60;;
18596;SDS011;9428;50.950;6.912;2023-08-07T12:19:01;6.60;;;1.90;;
18596;SDS011;9428;50.950;6.912;2023-08-07T12:21:51;5.93;;;2.00;;
18596;SDS011;9428;50.950;6.912;2023-08-07T12:24:38;7.05;;;1.92;;
18596;SDS011;9428;50.950;6.912;2023-08-07T12:27:28;4.47;;;1.90;;
18596;SDS011;9428;50.950;6.912;2023-08-07T12:30:15;8.18;;;1.88;;
18596;SDS011;9428;50.950;6.912;2023-08-07T12:33:02;7.85;;;2.05;;
18596;SDS011;9428;50.950;6.912;2023-08-07T12:35:51;6.28;;;1.88;;
18596;SDS011;9428;50.950;6.912;2023-08-07T12:38:41;7.90;;;1.92;;
18596;SDS011;9428;50.950;6.912;2023-08-07T12:41:28;8.48;;;2.35;;
18596;SDS011;9428;50.950;6.912;2023-08-07T12:44:15;5.05;;;1.73;;
18596;SDS011;9428;50.950;6.912;2023-08-07T12:47:03;5.03;;;2.03;;
18596;SDS011;9428;50.950;6.912;2023-08-07T12:49:50;5.32;;;1.80;;
18596;SDS011;9428;50.950;6.912;2023-08-07T12:52:37;8.10;;;2.88;;
18596;SDS011;9428;50.950;6.912;2023-08-07T12:55:26;8.43;;;2.30;;
18596;SDS011;9428;50.950;6.912;2023-08-07T12:58:14;3.67;;;1.70;;
18596;SDS011;9428;50.950;6.912;2023-08-07T13:01:04;5.68;;;1.80;;
18596;SDS011;9428;50.950;6.912;2023-08-07T13:03:51;4.13;;;1.80;;
18596;SDS011;9428;50.950;6.912;2023-08-07T13:06:38;5.20;;;1.60;;
18596;SDS011;9428;50.950;6.912;2023-08-07T13:09:25;4.90;;;1.90;;
18596;SDS011;9428;50.950;6.912;2023-08-07T13:12:14;6.18;;;2.20;;
18596;SDS011;9428;50.950;6.912;2023-08-07T13:15:01;7.35;;;2.22;;
18596;SDS011;9428;50.950;6.912;2023-08-07T13:17:48;6.53;;;2.05;;
18596;SDS011;9428;50.950;6.912;2023-08-07T13:20:35;5.75;;;1.70;;
18596;SDS011;9428;50.950;6.912;2023-08-07T13:23:23;4.55;;;1.90;;
18596;SDS011;9428;50.950;6.912;2023-08-07T13:26:10;8.43;;;1.80;;
18596;SDS011;9428;50.950;6.912;2023-08-07T13:28:58;9.90;;;1.85;;
18596;SDS011;9428;50.950;6.912;2023-08-07T13:31:46;7.20;;;2.47;;
18596;SDS011;9428;50.950;6.912;2023-08-07T13:34:33;5.15;;;1.55;;
18596;SDS011;9428;50.950;6.912;2023-08-07T13:37:21;6.32;;;1.80;;
18596;SDS011;9428;50.950;6.912;2023-08-07T13:40:08;6.57;;;2.08;;
18596;SDS011;9428;50.950;6.912;2023-08-07T13:42:59;4.50;;;1.88;;
18596;SDS011;9428;50.950;6.912;2023-08-07T13:45:49;6.88;;;1.95;;
18596;SDS011;9428;50.950;6.912;2023-08-07T13:48:37;2.70;;;1.55;;
18596;SDS011;9428;50.950;6.912;2023-08-07T13:51:24;7.15;;;2.30;;
18596;SDS011;9428;50.950;6.912;2023-08-07T13:54:11;6.07;;;2.03;;
18596;SDS011;9428;50.950;6.912;2023-08-07T13:56:58;10.57;;;2.10;;
18596;SDS011;9428;50.950;6.912;2023-08-07T13:59:45;6.13;;;1.85;;
18596;SDS011;9428;50.950;6.912;2023-08-07T14:02:34;7.22;;;2.90;;
18596;SDS011;9428;50.950;6.912;2023-08-07T14:05:21;4.43;;;2.10;;
18596;SDS011;9428;50.950;6.912;2023-08-07T14:08:08;4.57;;;1.95;;
18596;SDS011;9428;50.950;6.912;2023-08-07T14:10:56;5.75;;;2.08;;
18596;SDS011;9428;50.950;6.912;2023-08-07T14:13:43;4.93;;;2.05;;
18596;SDS011;9428;50.950;6.912;2023-08-07T14:16:31;6.47;;;1.83;;
18596;SDS011;9428;50.950;6.912;2023-08-07T14:19:20;9.13;;;2.00;;
18596;SDS011;9428;50.950;6.912;2023-08-07T14:22:07;7.57;;;2.25;;
18596;SDS011;9428;50.950;6.912;2023-08-07T14:24:55;5.45;;;2.03;;
18596;SDS011;9428;50.950;6.912;2023-08-07T14:27:42;10.35;;;2.35;;
18596;SDS011;9428;50.950;6.912;2023-08-07T14:30:32;6.60;;;2.05;;
18596;SDS011;9428;50.950;6.912;2023-08-07T14:33:19;4.72;;;2.40;;
18596;SDS011;9428;50.950;6.912;2023-08-07T14:36:08;4.72;;;2.42;;
18596;SDS011;9428;50.950;6.912;2023-08-07T14:38:55;8.43;;;2.38;;
18596;SDS011;9428;50.950;6.912;2023-08-07T14:41:43;6.65;;;2.35;;
18596;SDS011;9428;50.950;6.912;2023-08-07T14:44:30;6.80;;;2.38;;
18596;SDS011;9428;50.950;6.912;2023-08-07T14:47:17;7.15;;;2.17;;
18596;SDS011;9428;50.950;6.912;2023-08-07T14:50:04;4.32;;;2.13;;
18596;SDS011;9428;50.950;6.912;2023-08-07T14:52:53;3.33;;;1.73;;
18596;SDS011;9428;50.950;6.912;2023-08-07T14:55:40;3.72;;;2.15;;
18596;SDS011;9428;50.950;6.912;2023-08-07T14:58:28;4.78;;;2.53;;
18596;SDS011;9428;50.950;6.912;2023-08-07T15:01:17;8.38;;;2.22;;
18596;SDS011;9428;50.950;6.912;2023-08-07T15:04:05;5.03;;;2.13;;
18596;SDS011;9428;50.950;6.912;2023-08-07T15:06:53;8.27;;;2.67;;
18596;SDS011;9428;50.950;6.912;2023-08-07T15:09:41;7.70;;;2.58;;
18596;SDS011;9428;50.950;6.912;2023-08-07T15:12:28;3.88;;;2.05;;
18596;SDS011;9428;50.950;6.912;2023-08-07T15:15:16;5.45;;;2.10;;
18596;SDS011;9428;50.950;6.912;2023-08-07T15:18:03;5.88;;;2.38;;
18596;SDS011;9428;50.950;6.912;2023-08-07T15:20:50;8.38;;;2.20;;
18596;SDS011;9428;50.950;6.912;2023-08-07T15:23:38;3.88;;;2.20;;
18596;SDS011;9428;50.950;6.912;2023-08-07T15:26:26;5.70;;;2.35;;
18596;SDS011;9428;50.950;6.912;2023-08-07T15:29:13;6.15;;;2.45;;
18596;SDS011;9428;50.950;6.912;2023-08-07T15:32:01;6.68;;;2.40;;
18596;SDS011;9428;50.950;6.912;2023-08-07T15:34:48;3.85;;;1.75;;
18596;SDS011;9428;50.950;6.912;2023-08-07T15:37:35;5.20;;;2.13;;
18596;SDS011;9428;50.950;6.912;2023-08-07T15:40:23;5.85;;;1.98;;
18596;SDS011;9428;50.950;6.912;2023-08-07T15:43:11;3.58;;;1.90;;
18596;SDS011;9428;50.950;6.912;2023-08-07T15:45:58;6.18;;;2.00;;
18596;SDS011;9428;50.950;6.912;2023-08-07T15:48:46;4.95;;;2.28;;
18596;SDS011;9428;50.950;6.912;2023-08-07T15:51:33;3.92;;;2.60;;
18596;SDS011;9428;50.950;6.912;2023-08-07T15:54:20;4.22;;;2.30;;
18596;SDS011;9428;50.950;6.912;2023-08-07T15:57:07;3.40;;;2.00;;
18596;SDS011;9428;50.950;6.912;2023-08-07T15:59:56;2.92;;;2.22;;
18596;SDS011;9428;50.950;6.912;2023-08-07T16:02:43;5.90;;;1.88;;
18596;SDS011;9428;50.950;6.912;2023-08-07T16:05:30;3.17;;;2.10;;
18596;SDS011;9428;50.950;6.912;2023-08-07T16:08:18;3.15;;;1.83;;
18596;SDS011;9428;50.950;6.912;2023-08-07T16:11:05;4.53;;;2.13;;
18596;SDS011;9428;50.950;6.912;2023-08-07T16:13:52;4.97;;;2.03;;
18596;SDS011;9428;50.950;6.912;2023-08-07T16:16:41;2.95;;;2.15;;
18596;SDS011;9428;50.950;6.912;2023-08-07T16:19:28;3.85;;;1.80;;
18596;SDS011;9428;50.950;6.912;2023-08-07T16:22:15;4.45;;;1.90;;
18596;SDS011;9428;50.950;6.912;2023-08-07T16:25:02;5.28;;;1.77;;
18596;SDS011;9428;50.950;6.912;2023-08-07T16:27:50;5.40;;;1.73;;
18596;SDS011;9428;50.950;6.912;2023-08-07T16:30:37;2.28;;;1.58;;
18596;SDS011;9428;50.950;6.912;2023-08-07T16:33:26;3.53;;;2.00;;
18596;SDS011;9428;50.950;6.912;2023-08-07T16:36:14;3.13;;;1.80;;
18596;SDS011;9428;50.950;6.912;2023-08-07T16:39:01;3.83;;;1.50;;
18596;SDS011;9428;50.950;6.912;2023-08-07T16:41:49;5.75;;;1.70;;
18596;SDS011;9428;50.950;6.912;2023-08-07T16:44:36;4.38;;;1.70;;
18596;SDS011;9428;50.950;6.912;2023-08-07T16:47:23;3.88;;;1.90;;
18596;SDS011;9428;50.950;6.912;2023-08-07T16:50:11;2.10;;;1.33;;
18596;SDS011;9428;50.950;6.912;2023-08-07T16:52:59;6.60;;;1.75;;
18596;SDS011;9428;50.950;6.912;2023-08-07T16:55:46;2.88;;;1.50;;
18596;SDS011;9428;50.950;6.912;2023-08-07T16:58:33;1.83;;;1.30;;
18596;SDS011;9428;50.950;6.912;2023-08-07T17:01:20;2.63;;;1.90;;
18596;SDS011;9428;50.950;6.912;2023-08-07T17:04:08;5.35;;;1.77;;
18596;SDS011;9428;50.950;6.912;2023-08-07T17:06:56;2.22;;;1.45;;